Bet-Host.net
POKERKINI

Jackpot

Texas Poker Multi Jackpot System

Kini Telah hadir Jackpot SUPER ROYAL FLUSH

Kini Telah hadir Jackpot 2000 (khusus table VIP keatas).

Ikutilah global jackpot yang tersedia di system kami, dengan system jackpot terbaru dan pertama di indonesia, anda dapat membeli jackpot dengan harga 100 rupiah saja dan menangkan hadiahnya hingga puluhan juta rupiah.

Jackpot bukanlah suatu keharusan untuk dibeli, namun kami memberikan suatu fitur tambahan untuk member tercinta dari www.pokerkini.net.

Terdapat tiga pilihan harga jackpot yang bisa anda beli yaitu :100,500,1000 dan 2000(khusus table VIP Keatas) rupiah.

Hadiah dari Multi jackpot system www.pokerkini.net

  1. full house x 10 harga jackpot yang anda beli.
      (contoh:anda membeli 1000 maka:1000 X10 = 10.000)
  2. four of kind x 250 harga jackpot yang anda beli
      (contoh:anda membeli 1000 maka:1000 X250 = 250.000)
  3. Straight flush x 1200
      (contoh:anda membeli 1000 maka:1000 X1200 = 1.200.000)
  4. Royal flush x 10000 harga jackpot yang anda beli
      (contoh:anda membeli 1000 maka:1000 X10000 = 10.000.000)
  5. SUPER ROYAL FLUSH x 30000 harga jackpot yang anda beli
      (contoh:anda membeli 1000 maka:1000 X30000 = 30.000.000)

Kondisi kartu

  1. full house adalah kondisi kartu dimana kartu anda dan kartu tengah dengan total 7 kartu bisa mendapatkan nilai 5 kartu dengan kombinasi 1 tris(three of kind) dan 1 pair, contoh 3 kartu 10 dan 2 kartu 5
  2. Four of kind adalah kondisi kartu dimana kartu anda dan kartu tengah dengan total 7 kartu bisa mendapatkan nilai 5 kartu dengan kombinasi 4 kartu yang sama jumlah dan 1 kartu apapun juga contoh anda mendapatkan 4 buah kartu angka 3 dan 1 kartu apapun.
  3. Staright flush adalah kondisi kartu dimana kartu anda dan kartu tengah dengan total 7 kartu bisa mendapatkan nilai 5 kartu dengan kombinasi seri / staright dengan kembang yang sama contoh : urutan kartu dari angka 5, 6, 7, 8 , 9 10 dengan kembang yg sama misalnya as hati
  4. Royal flush adalah kondisi kartu dimana kartu anda dan kartu tengah dengan total 7 kartu bisa mendapatkan nilai 5 kartu dengan kombinasi seri / staright dengan kembang yang sama tetapi kartu tersebut haruslah dimulai dari 10. contoh 10, Queen, Jack, King dan aces dengan kembang yang sama
  5. Super Royal flush adalah kondisi kartu dimana Kedua kartu anda digabung dengan 3 kartu pertama meja haruslah royal flush. contoh kartu anda 10,Queen kembang sama dan 3 kartu pertama meja adalah Jack, King dan aces dengan kembang yang sama

Demikian adalah penjelasan dari Multi Jackpot www.pokerkini.net terima kasih dan selamat bermain salam hoki dari kami

Texas Poker Jackpot Winner

TOP SUPER ROYAL FLUSH
No.TanggalNamaPriceWin
120/01 06:38HENKEPSuper Royal flush15,000,000
220/01 01:43S17331ZGIAI0ZK9Super Royal flush6,000,000
320/01 01:36ALBY040314Super Royal flush3,000,000
419/01 22:52TATA_IMYSuper Royal flush6,000,000
519/01 21:56ROMLY991Super Royal flush15,000,000
TOP ROYAL FLUSH
No.TanggalNamaPriceWin
120/01 07:55SMPK02Royal flush5,000,000
220/01 07:20PENGK0KRoyal flush2,000,000
320/01 07:11DWBTMBOO15Royal flush5,000,000
420/01 07:06KAYSHA212Royal flush1,000,000
520/01 06:26RAZZAN15Royal flush500,000
TOP STRAIGHT FLUSH
No.TanggalNamaPriceWin
120/01 08:01PK_SLAMET9Straight Flush600,000
220/01 07:59EAA1DFCCStraight Flush240,000
320/01 07:59SEH015Straight Flush240,000
420/01 07:58PKERCARDStraight Flush240,000
520/01 07:54TATANG227Straight Flush240,000
LATEST JACKPOT
No.TanggalNamaPriceWin
120/01 08:02PKERCARDFull House2,000
220/01 08:02DEGAGJAGOFull House2,000
320/01 08:02DPTBYK20Full House5,000
420/01 08:02BADGERR_Full House20,000
520/01 08:02A1D1L21Full House20,000
620/01 08:02BOMBOOOFull House5,000
720/01 08:02LANJUT968Full House1,000
820/01 08:02DWBTOMBU99Full House1,000
920/01 08:02AYAHABUFull House1,000
1020/01 08:02JEEP13Full House2,000
1120/01 08:02E23B2919Four Of A Kind50,000
1220/01 08:02ADITJIE24Full House500
1320/01 08:02062606Full House2,000
1420/01 08:02RIKYBULSFull House2,000
1520/01 08:01YEEESSSSSSFull House2,000
1620/01 08:01GELOWFull House1,000
1720/01 08:01PK_SLAMET9Straight Flush600,000
1820/01 08:01DPL1790Full House10,000
1920/01 08:01SATRIA0017Full House2,000
2020/01 08:01APEI2014Full House10,000
2120/01 08:01FREDDY012Four Of A Kind500,000
2220/01 08:01LUNGSET6Full House1,000
2320/01 08:01SEPTA833Four Of A Kind250,000
2420/01 08:01SANIP28Four Of A Kind50,000
2520/01 08:01YOKA2005Full House5,000
2620/01 08:01MEXY08Full House2,000
2720/01 08:01SARDAK88Four Of A Kind25,000
2820/01 08:01PIANNN16Full House5,000
2920/01 08:01ZEDAPJP12Four Of A Kind125,000
3020/01 08:01DARWAN123Full House20,000
3120/01 08:01AAGBAEHE11Four Of A Kind125,000
3220/01 08:01ADHYA69Full House2,000
3320/01 08:01HARMAN1010Full House10,000
3420/01 08:01KRIWELFull House5,000
3520/01 08:01TOEYOEL_33Full House2,000
3620/01 08:00RAFIIGUREMFull House5,000
3720/01 08:00KM18QV2X25Full House10,000
3820/01 08:00TEMPOER7Full House10,000
3920/01 08:00IPLDEDI77Full House1,000
4020/01 08:00WANDYQIUFull House2,000
4120/01 08:00YH309E73AIFull House2,000
4220/01 08:00GANDA321Full House5,000
4320/01 08:00HIELDEGARDFull House1,000
4420/01 08:00QQKURNIAWAFull House2,000
4520/01 08:00UNGE09Full House2,000
4620/01 08:00KUMATKAMITFull House10,000
4720/01 08:00BLACKMASKED89Full House20,000
4820/01 08:00F0877D0AFull House5,000
4920/01 08:00KUKUHKFTFull House2,000
5020/01 08:00TOPOKEROKFull House2,000

Domino Multi Jackpot System

Ikutilah global jackpot yang tersedia di system kami, dengan system jackpot terbaru dan pertama di indonesia, anda dapat membeli jackpot dengan harga 100 rupiah saja dan menangkan hadiahnya hingga puluhan juta rupiah.

Jackpot bukanlah suatu keharusan untuk dibeli, namun kami memberikan suatu fitur tambahan untuk member tercinta dari www.pokerkini.net.

Terdapat tiga pilihan harga jackpot yang bisa anda beli yaitu :100,500 dan 1000 rupiah.

Hadiah dari Multi jackpot system www.pokerkini.net

  1. Murni Kecil x 50 harga jackpot yang anda beli.
      (contoh:anda membeli 1000 maka:1000 X 50 = 50.000)
  2. Murni Besar x 50 harga jackpot yang anda beli
      (contoh:anda membeli 1000 maka:1000 X 50 = 50.000)
  3. BALAK x 100 harga jackpot yang anda beli
      (contoh:anda membeli 1000 maka:1000 X 100 = 100.000)
  4. ENAM DEWA x 6666 harga jackpot yang anda beli
      (contoh:anda membeli 1000 maka:1000 X 6666 = 6.666.000)

Demikian adalah penjelasan dari Multi Jackpot www.pokerkini.net terima kasih dan selamat bermain salam hoki dari kami

Domino Jackpot Winner

TOP ENAM DEWA
No.TanggalNamaPriceWin
120/01 01:39ZEAN007murni enam666,600
219/01 23:16ALFATAH17murni enam6,666,000
319/01 22:56DIKI98murni enam3,333,000
419/01 21:42OLIV46murni enam6,666,000
519/01 21:31PLANET11murni enam3,333,000
TOP BALAK
No.TanggalNamaPriceWin
120/01 07:58BR4NBRYNbalak100,000
220/01 07:52CUG3NKbalak10,000
320/01 07:52XY5XW6NJIZbalak50,000
420/01 07:48SHARAMAYERbalak10,000
520/01 07:48SNOODSbalak100,000
LATEST JACKPOT
No.TanggalNamaPriceWin
120/01 08:02HKWS6FO6CDmurni besar25,000
220/01 08:01AGUA123murni kecil25,000
320/01 07:59OM_ADImurni besar50,000
420/01 07:58BR4NBRYNbalak100,000
520/01 07:57IMAM1789lucky9950,000
620/01 07:54OM_ADImurni besar50,000
720/01 07:54PASWORD7murni kecil50,000
820/01 07:53JIMBO_CR7murni besar50,000
920/01 07:53AAAYYYYmurni besar5,000
1020/01 07:52CUG3NKbalak10,000
1120/01 07:52XY5XW6NJIZbalak50,000
1220/01 07:52LEMPAYmurni besar25,000
1320/01 07:52BIDIN29murni besar50,000
1420/01 07:52CARSAD09murni besar50,000
1520/01 07:51JHONONAR99lucky99200,000
1620/01 07:49NUG7YABNFCmurni kecil5,000
1720/01 07:49ANCH0R3murni kecil50,000
1820/01 07:48SHARAMAYERbalak10,000
1920/01 07:48SNOODSbalak100,000
2020/01 07:48ANJGKAUmurni besar5,000
2120/01 07:47HOMBING5murni besar25,000
2220/01 07:46COOLC4Zmurni besar25,000
2320/01 07:45NYANGK0Y0Tmurni kecil25,000
2420/01 07:45KPN72murni besar50,000
2520/01 07:43KONYONG87murni besar5,000
2620/01 07:42SADOYO01murni kecil50,000
2720/01 07:41YAHUTSSSmurni kecil50,000
2820/01 07:41ANAKBL4GUbalak50,000
2920/01 07:40J33XP88Tmurni kecil5,000
3020/01 07:37NOVI222lucky9950,000
3120/01 07:36BECEKAN10murni kecil5,000
3220/01 07:35HOMHI00murni besar5,000
3320/01 07:35NYANGK0Y0Tmurni besar25,000
3420/01 07:33CUG3NKmurni besar5,000
3520/01 07:33ZIMBADD11murni besar50,000
3620/01 07:31BUDE122murni besar5,000
3720/01 07:29OM_ADImurni besar25,000
3820/01 07:29MASISAbalak50,000
3920/01 07:28K0NT07L0murni kecil25,000
4020/01 07:28GIBILLQQmurni besar50,000
4120/01 07:28SRIKALOlucky9950,000
4220/01 07:27BONGA14murni kecil5,000
4320/01 07:26PITO11murni besar50,000
4420/01 07:26A093murni besar50,000
4520/01 07:25SAMWIRmurni kecil50,000
4620/01 07:24OGE28murni besar50,000
4720/01 07:24BUDE122murni kecil5,000
4820/01 07:23MASISAbalak50,000
4920/01 07:23DHEA014lucky992,500
5020/01 07:22GAPLEXXXbalak100,000

Ceme Multi Jackpot System

Jackpot dilihat dari gabungan kartu pemain dengan kartu bandar. Bandar harus membeli jackpot sebanyak jumlah player yang sedang duduk. Sebagai contoh bila terdapat 3 pemain duduk bermain, dan bandar memutuskan untuk membeli jackpot Rp 1.000, maka pada periode tersebut bandar akan membeli jackpot sebanyak 3xRp1.000 = Rp3.000.

Jackpot bukanlah suatu keharusan untuk dibeli, namun kami memberikan suatu fitur tambahan untuk member tercinta dari www.pokerkini.net.

Terdapat tiga pilihan harga jackpot yang bisa anda beli yaitu :100,500 dan 1000 rupiah.

Hadiah dari Multi jackpot system www.pokerkini.net

  1. Murni Kecil x 50 harga jackpot yang anda beli.
      (contoh:anda membeli 1000 maka:1000 X 50 = 50.000)
  2. Murni Besar x 50 harga jackpot yang anda beli
      (contoh:anda membeli 1000 maka:1000 X 50 = 50.000)
  3. BALAK x 200 harga jackpot yang anda beli
      (contoh:anda membeli 1000 maka:1000 X 200 = 200.000)
  4. ENAM DEWA x 6666 harga jackpot yang anda beli
      (contoh:anda membeli 1000 maka:1000 X 6666 = 6.666.000)

Demikian adalah penjelasan dari Multi Jackpot www.pokerkini.net terima kasih dan selamat bermain salam hoki dari kami

Ceme Jackpot Winner

TOP ENAM DEWA
No.TanggalNamaPriceWin
120/01 07:38QS33murni enam3,333,000
220/01 07:38QUUENQIUmurni enam6,666,000
320/01 07:37KEMANGI3murni enam6,666,000
420/01 07:14XXXZ88murni enam3,333,000
520/01 07:14WIYANI99murni enam6,666,000
TOP BALAK
No.TanggalNamaPriceWin
120/01 08:01ASSEJSKAHDbalak200,000
220/01 08:00HK_5888balak200,000
320/01 08:00HHADI44balak200,000
420/01 08:00DEVALO22balak200,000
520/01 08:00MURAI878balak200,000
LATEST JACKPOT
No.TanggalNamaPriceWin
120/01 08:01TARUMPAKKAmurni kecil25,000
220/01 08:01TOTONK999murni kecil50,000
320/01 08:01ASSEJSKAHDbalak200,000
420/01 08:01SNI50535murni kecil5,000
520/01 08:01KOINMARWImurni kecil25,000
620/01 08:01AGGUSS01murni kecil50,000
720/01 08:01WENAS00murni kecil50,000
820/01 08:00EDI305murni kecil5,000
920/01 08:00DIYAS88murni kecil5,000
1020/01 08:00DOYOMImurni besar50,000
1120/01 08:00LANANG009murni besar50,000
1220/01 08:00MUKHLIS88murni kecil50,000
1320/01 08:00HK_5888balak200,000
1420/01 08:00HHADI44balak200,000
1520/01 08:00DEVALO22balak200,000
1620/01 08:00MURAI878balak200,000
1720/01 07:59ZINK_2007murni kecil50,000
1820/01 07:58BIGBOS_HWbalak200,000
1920/01 07:58RUDE85murni besar50,000
2020/01 07:58BXG44G11BDmurni kecil25,000
2120/01 07:58DEVALO22balak200,000
2220/01 07:58YOSSHY9_murni kecil50,000
2320/01 07:57CM023THmurni kecil5,000
2420/01 07:57KESEL58murni kecil50,000
2520/01 07:57LIAR_28murni kecil25,000
2620/01 07:56ADENKPRAmurni besar50,000
2720/01 07:56DODIE21murni kecil5,000
2820/01 07:56ROZIQI1murni kecil50,000
2920/01 07:56AGGUSS01murni kecil50,000
3020/01 07:56WENAS00murni kecil50,000
3120/01 07:56KANAYA94murni besar50,000
3220/01 07:56STEVANBDGmurni kecil50,000
3320/01 07:56STEVANBDGmurni kecil50,000
3420/01 07:56A15022016balak200,000
3520/01 07:55ALS4murni besar50,000
3620/01 07:55QURAIN12balak200,000
3720/01 07:55HOKAIIObalak20,000
3820/01 07:55MJR132murni kecil50,000
3920/01 07:55F2F090FDmurni kecil5,000
4020/01 07:55NYAMUK0159murni besar50,000
4120/01 07:55VANDAKU99murni besar50,000
4220/01 07:55UBERMANmurni kecil5,000
4320/01 07:55A15022016murni kecil50,000
4420/01 07:55GANDA321murni kecil25,000
4520/01 07:55A15022016murni kecil50,000
4620/01 07:55DANA_378murni kecil50,000
4720/01 07:55HK_5888murni besar50,000
4820/01 07:55MEDGmurni besar25,000
4920/01 07:54HENIRUSmurni kecil50,000
5020/01 07:54DAYOK21murni besar25,000